This is the latest recevied weather packets stored in our database for station/object WY1U-1. If no packets are shown the sender has not sent any weather packets the latest 10 day(s).
| Time | Temp. | Humidity | Pressure | Rain* | Wind** | Luminosity | Snow |
|---|---|---|---|---|---|---|---|
| 1777289509 | 6.67° C | 96% | 1024.2 hPa | 0 mm | - | - | - |
| 1777285909 | 3.89° C | 96% | 1023.7 hPa | 0 mm | - | - | - |
| 1777284110 | 3.89° C | 96% | 1023.7 hPa | 0 mm | - | - | - |
| 1777280511 | 3.89° C | 96% | 1023.3 hPa | 0 mm | - | - | - |
| 1777276911 | 4.44° C | 95% | 1022.9 hPa | 0 mm | - | - | - |
| 1777275109 | 5° C | 95% | 1022.7 hPa | 0 mm | - | - | - |
| 1777273311 | 5° C | 95% | 1022.6 hPa | 0 mm | - | - | - |
| 1777269710 | 5° C | 94% | 1022.6 hPa | 0 mm | - | - | - |
| 1777266111 | 5.56° C | 92% | 1022.8 hPa | 0 mm | - | - | - |
| 1777262511 | 6.11° C | 89% | 1022.6 hPa | 0 mm | - | - | - |
| 1777260711 | 6.67° C | 88% | 1022.6 hPa | 0 mm | - | - | - |
| 1777255311 | 8.33° C | 80% | 1022.5 hPa | 0 mm | - | - | - |
| 1777251711 | 9.44° C | 75% | 1022.1 hPa | 0 mm | - | - | - |
| 1777248110 | 11.11° C | 69% | 1021.6 hPa | 0 mm | - | - | - |
| 1777244511 | 12.78° C | 62% | 1020.8 hPa | 0 mm | - | - | - |
| 1777240911 | 15.56° C | 55% | 1020.3 hPa | 0 mm | - | - | - |
| 1777237314 | 18.33° C | 40% | 1019.9 hPa | 0 mm | - | - | - |
| 1777233711 | 17.22° C | 46% | 1020.1 hPa | 0 mm | - | - | - |
| 1777230110 | 16.67° C | 48% | 1020.3 hPa | 0 mm | - | - | - |
| 1777228310 | 16.11° C | 52% | 1020.6 hPa | 0 mm | - | - | - |
| 1777226510 | 15° C | 53% | 1020.6 hPa | 0 mm | - | - | - |
| 1777224710 | 13.89° C | 56% | 1020.8 hPa | 0 mm | - | - | - |
| 1777222911 | 13.33° C | 61% | 1021 hPa | 0 mm | - | - | - |
| 1777219310 | 11.11° C | 66% | 1021.3 hPa | 0 mm | - | - | - |
| 1777215711 | 10.56° C | 83% | 1021 hPa | 0 mm | - | - | - |
* Rain latest hour (hover to see other rain measurements)
** Current wind speed in m/s (hover to see current wind gust speed)